This is the latest recevied weather packets stored in our database for station/object ANJALA. If no packets are shown the sender has not sent any weather packets the latest 10 day(s).
| Time | Temp. | Humidity | Pressure | Rain* | Wind** | Luminosity | Snow |
|---|---|---|---|---|---|---|---|
| 1777790824 | 11.11° C | 65% | - | 0 mm | - | - | - |
| 1777789624 | 10.56° C | 68% | - | 0 mm | - | - | - |
| 1777788424 | 10° C | 72% | - | 0 mm | - | - | - |
| 1777787224 | 8.89° C | 74% | - | 0 mm | - | - | - |
| 1777786024 | 8.33° C | 78% | - | 0 mm | - | - | - |
| 1777784824 | 8.33° C | 78% | - | 0 mm | - | - | - |
| 1777783624 | 7.22° C | 81% | - | 0 mm | - | - | - |
| 1777782424 | 7.22° C | 82% | - | 0 mm | - | - | - |
| 1777781224 | 7.22° C | 81% | - | 0 mm | - | - | - |
| 1777780023 | 7.22° C | 81% | - | 0 mm | - | - | - |
| 1777778823 | 7.22° C | 83% | - | 0 mm | - | - | - |
| 1777777623 | 6.67° C | 86% | - | 0 mm | - | - | - |
| 1777776423 | 5.56° C | 87% | - | 0 mm | - | - | - |
| 1777775223 | 5.56° C | 87% | - | 0 mm | - | - | - |
| 1777774023 | 5.56° C | 88% | - | 0 mm | - | - | - |
| 1777772823 | 5.56° C | 87% | - | 0 mm | - | - | - |
| 1777771623 | 6.67° C | 86% | - | 0 mm | - | - | - |
| 1777770423 | 6.11° C | 86% | - | 0 mm | - | - | - |
| 1777769223 | 6.11° C | 87% | - | 0 mm | - | - | - |
| 1777768023 | 6.67° C | 86% | - | 0 mm | - | - | - |
| 1777766823 | 7.78° C | 79% | - | 0 mm | - | - | - |
| 1777765622 | 7.78° C | 79% | - | 0 mm | - | - | - |
| 1777764423 | 7.22° C | 81% | - | 0 mm | - | - | - |
| 1777763222 | 8.33° C | 75% | - | 0 mm | - | - | - |
| 1777762022 | 8.89° C | 74% | - | 0 mm | - | - | - |
* Rain latest hour (hover to see other rain measurements)
** Current wind speed in m/s (hover to see current wind gust speed)